Time;durP1;ratioP1;P1;durP2;ratioP2;P2;SDS_P1;SDS_P2;PMS_P1;PMS_P2;Temp;Humidity;BMP_temperature;BMP_pressure;BME280_temperature;BME280_humidity;BME280_pressure;Samples;Min_cycle;Max_cycle;Signal;HPM_P1;HPM_P2
2021/07/14 00:01:59;;;;;;;5.47;5.00;;;14.60;99.90;;;;;;5052737;28;20610;-71
2021/07/14 00:04:26;;;;;;;5.53;4.77;;;14.60;99.90;;;;;;5035212;28;20606;-71
2021/07/14 00:06:52;;;;;;;7.97;4.80;;;14.50;99.90;;;;;;5052769;28;20606;-73
2021/07/14 00:09:18;;;;;;;8.13;4.80;;;14.50;99.90;;;;;;5052935;28;21144;-72
2021/07/14 00:11:53;;;;;;;7.77;4.70;;;14.50;99.90;;;;;;5056528;28;20614;-73
2021/07/14 00:17:22;;;;;;;8.33;4.83;;;14.30;99.90;;;;;;5056405;28;21003;-71
2021/07/14 00:22:29;;;;;;;7.57;5.00;;;14.10;99.90;;;;;;5056506;28;20653;-72
2021/07/14 00:24:56;;;;;;;6.13;5.20;;;14.10;99.90;;;;;;5056226;28;20621;-72
2021/07/14 00:27:24;;;;;;;8.67;6.20;;;14.10;99.90;;;;;;5056030;28;20603;-71
2021/07/14 00:29:55;;;;;;;12.20;6.47;;;14.00;99.90;;;;;;5038076;28;20618;-72
2021/07/14 00:32:27;;;;;;;14.63;6.43;;;14.00;99.90;;;;;;5055974;28;20567;-72
2021/07/14 00:34:54;;;;;;;22.27;6.27;;;14.00;99.90;;;;;;5056133;28;20955;-72
2021/07/14 00:37:21;;;;;;;11.40;5.97;;;13.90;99.90;;;;;;5056022;28;20683;-72
2021/07/14 00:39:55;;;;;;;9.30;5.47;;;13.90;99.90;;;;;;5055712;28;20654;-72
2021/07/14 00:42:22;;;;;;;8.63;5.60;;;13.90;99.90;;;;;;5055652;28;20657;-72
2021/07/14 00:44:49;;;;;;;6.70;5.93;;;13.90;99.90;;;;;;5055736;28;20626;-72
2021/07/14 00:47:22;;;;;;;10.50;6.73;;;13.90;99.90;;;;;;5055912;28;20689;-72
2021/07/14 00:49:48;;;;;;;9.10;6.23;;;13.90;99.90;;;;;;5055386;28;20611;-72
2021/07/14 00:52:15;;;;;;;8.93;6.77;;;13.80;99.90;;;;;;5037895;28;21141;-72
2021/07/14 00:54:43;;;;;;;8.93;6.90;;;13.80;99.90;;;;;;5055646;28;20968;-72
2021/07/14 00:57:09;;;;;;;10.03;6.53;;;13.70;99.90;;;;;;5055585;28;20657;-72
2021/07/14 00:59:36;;;;;;;11.63;6.67;;;13.70;99.90;;;;;;5037642;28;20627;-72
2021/07/14 01:02:02;;;;;;;15.20;8.10;;;13.70;99.90;;;;;;5055918;28;21046;-72
2021/07/14 01:04:34;;;;;;;8.80;7.00;;;13.70;99.90;;;;;;5055686;28;20615;-72
2021/07/14 01:07:16;;;;;;;9.67;7.03;;;13.60;99.90;;;;;;5055780;28;20672;-73
2021/07/14 01:10:14;;;;;;;7.67;6.80;;;13.60;99.90;;;;;;5055344;28;20563;-73
2021/07/14 01:13:09;;;;;;;14.67;7.10;;;13.60;99.90;;;;;;5055441;28;20583;-73
2021/07/14 01:15:48;;;;;;;17.17;7.00;;;13.60;99.90;;;;;;5055086;28;20706;-73
2021/07/14 01:18:18;;;;;;;7.73;6.90;;;13.60;99.90;;;;;;5055429;28;20560;-73
2021/07/14 01:21:02;;;;;;;9.23;6.83;;;13.60;99.90;;;;;;5055232;28;21140;-73
2021/07/14 01:23:31;;;;;;;9.10;6.83;;;13.50;99.90;;;;;;5054192;28;20662;-73
2021/07/14 01:26:06;;;;;;;14.83;9.07;;;13.50;99.90;;;;;;5054972;28;20622;-73
2021/07/14 01:28:36;;;;;;;12.77;7.70;;;13.50;99.90;;;;;;5055078;28;20603;-73
2021/07/14 01:31:04;;;;;;;21.38;8.20;;;13.40;99.90;;;;;;5055184;28;20655;-74
2021/07/14 01:33:33;;;;;;;10.30;7.43;;;13.40;99.90;;;;;;5020468;28;20212;-72
2021/07/14 01:36:04;;;;;;;11.90;7.97;;;13.40;99.90;;;;;;5054411;28;20550;-72
2021/07/14 01:38:33;;;;;;;10.10;7.32;;;13.40;99.90;;;;;;5055227;28;21142;-73
2021/07/14 01:41:02;;;;;;;9.73;7.80;;;13.40;99.90;;;;;;5054777;28;20705;-72
2021/07/14 01:43:36;;;;;;;10.60;7.50;;;13.40;99.90;;;;;;5054781;28;21041;-72
2021/07/14 01:46:05;;;;;;;11.10;7.30;;;13.40;99.90;;;;;;5054835;28;20556;-73
2021/07/14 01:48:33;;;;;;;10.60;7.97;;;13.40;99.90;;;;;;5054933;28;20680;-73
2021/07/14 01:51:01;;;;;;;11.53;7.80;;;13.40;99.90;;;;;;5054560;28;20599;-73
2021/07/14 01:53:28;;;;;;;14.80;8.73;;;13.40;99.90;;;;;;5054713;28;21149;-73
2021/07/14 01:55:55;;;;;;;11.70;8.90;;;13.40;99.90;;;;;;5054398;28;21239;-72
2021/07/14 01:58:24;;;;;;;13.37;7.83;;;13.40;99.90;;;;;;5054589;28;20595;-72
2021/07/14 02:00:52;;;;;;;10.30;8.30;;;13.40;99.90;;;;;;5054435;28;20937;-73
2021/07/14 02:03:40;;;;;;;10.83;7.60;;;13.40;99.90;;;;;;5054076;28;21045;-72
2021/07/14 02:06:07;;;;;;;13.77;8.13;;;13.30;99.90;;;;;;5054264;28;20618;-72
2021/07/14 02:08:38;;;;;;;20.23;8.80;;;13.30;99.90;;;;;;5054308;28;20595;-72
2021/07/14 02:11:05;;;;;;;9.80;7.63;;;13.40;99.90;;;;;;5054350;28;20599;-72
2021/07/14 02:13:34;;;;;;;9.70;7.73;;;13.40;99.90;;;;;;5054331;28;20987;-72
2021/07/14 02:16:02;;;;;;;10.70;7.47;;;13.50;99.90;;;;;;5054298;28;20599;-72
2021/07/14 02:18:35;;;;;;;13.03;8.53;;;13.50;99.90;;;;;;5053052;28;20634;-72
2021/07/14 02:21:01;;;;;;;14.30;7.80;;;13.50;99.90;;;;;;5054087;28;20620;-72
2021/07/14 02:23:27;;;;;;;11.00;7.70;;;13.50;99.90;;;;;;5053684;28;21225;-72
2021/07/14 02:25:54;;;;;;;12.37;6.97;;;13.60;99.90;;;;;;5054016;28;20607;-72
2021/07/14 02:28:20;;;;;;;8.13;7.30;;;13.50;99.90;;;;;;5053880;28;20595;-72
2021/07/14 02:30:47;;;;;;;15.90;8.70;;;13.50;99.90;;;;;;5054335;28;20611;-72
2021/07/14 02:33:14;;;;;;;9.57;7.13;;;13.50;99.90;;;;;;5052990;28;20574;-72
2021/07/14 02:35:44;;;;;;;11.80;8.37;;;13.60;99.90;;;;;;5054139;28;20626;-72
2021/07/14 02:38:23;;;;;;;15.97;8.10;;;13.60;99.90;;;;;;5052931;28;20627;-72
2021/07/14 02:40:53;;;;;;;9.23;7.77;;;13.70;99.90;;;;;;5053121;28;21001;-71
2021/07/14 02:43:26;;;;;;;13.57;8.00;;;13.70;99.90;;;;;;5053209;28;21138;-71
2021/07/14 02:45:55;;;;;;;9.73;7.93;;;13.70;99.90;;;;;;5053650;28;20646;-72
2021/07/14 02:48:25;;;;;;;10.30;8.13;;;13.70;99.90;;;;;;5053814;28;20592;-71
2021/07/14 02:50:54;;;;;;;13.73;8.80;;;13.80;99.90;;;;;;5053635;28;20599;-71
2021/07/14 02:53:25;;;;;;;21.07;9.40;;;13.80;99.90;;;;;;5053565;28;21187;-71
2021/07/14 02:56:05;;;;;;;16.50;10.27;;;13.80;99.90;;;;;;5053542;28;20538;-71
2021/07/14 02:58:33;;;;;;;20.80;9.57;;;13.80;99.90;;;;;;5053716;28;20571;-71
2021/07/14 03:01:01;;;;;;;17.57;11.00;;;13.70;99.90;;;;;;5053462;28;20615;-71
2021/07/14 03:03:28;;;;;;;12.33;10.00;;;13.70;99.90;;;;;;5053015;28;20653;-71
2021/07/14 03:05:58;;;;;;;11.30;9.73;;;13.80;99.90;;;;;;5052987;28;20619;-71
2021/07/14 03:08:32;;;;;;;10.70;9.60;;;13.80;99.90;;;;;;5052844;28;20588;-71
2021/07/14 03:10:59;;;;;;;15.00;10.47;;;13.80;99.90;;;;;;5052973;28;20693;-71
2021/07/14 03:13:29;;;;;;;16.30;11.17;;;13.90;99.90;;;;;;5052780;28;20611;-71
2021/07/14 03:15:57;;;;;;;18.10;12.00;;;13.90;99.90;;;;;;5052960;28;20619;-71
2021/07/14 03:18:27;;;;;;;17.57;12.00;;;13.90;99.90;;;;;;5053539;28;20927;-71
2021/07/14 03:20:56;;;;;;;16.20;11.23;;;13.80;99.90;;;;;;5035886;28;20574;-71
2021/07/14 03:23:24;;;;;;;14.97;12.37;;;13.80;99.90;;;;;;5052956;28;20659;-71
2021/07/14 03:25:52;;;;;;;15.17;11.53;;;13.70;99.90;;;;;;5053017;28;20615;-71
2021/07/14 03:28:20;;;;;;;21.97;12.77;;;13.70;99.90;;;;;;5053077;28;20965;-71
2021/07/14 03:30:48;;;;;;;17.97;12.50;;;13.70;99.90;;;;;;5053053;28;20619;-71
2021/07/14 03:33:16;;;;;;;20.77;12.27;;;13.70;99.90;;;;;;5053593;28;20606;-72
2021/07/14 03:35:43;;;;;;;22.60;12.17;;;13.70;99.90;;;;;;5053022;28;20680;-72
2021/07/14 03:38:11;;;;;;;24.07;13.63;;;13.70;99.90;;;;;;5052851;28;20615;-72
2021/07/14 03:40:40;;;;;;;19.50;13.27;;;13.70;99.90;;;;;;5052769;28;20653;-72
2021/07/14 03:43:08;;;;;;;24.23;12.30;;;13.60;99.90;;;;;;5053085;28;20669;-72
2021/07/14 03:45:38;;;;;;;20.27;12.70;;;13.60;99.90;;;;;;5037756;28;20569;-72
2021/07/14 03:48:05;;;;;;;14.03;10.67;;;13.60;99.90;;;;;;5057030;28;20594;-72
2021/07/14 03:50:33;;;;;;;25.03;10.50;;;13.70;99.90;;;;;;5056971;28;20993;-73
2021/07/14 03:53:00;;;;;;;15.63;9.70;;;13.60;99.90;;;;;;5056929;28;20638;-73
2021/07/14 03:55:27;;;;;;;12.20;8.60;;;13.70;99.90;;;;;;5056827;28;20686;-73
2021/07/14 03:57:54;;;;;;;13.00;11.47;;;13.50;99.90;;;;;;5056800;28;20622;-72
2021/07/14 04:00:20;;;;;;;15.00;11.10;;;13.60;99.90;;;;;;5056810;28;20580;-72
2021/07/14 04:02:47;;;;;;;18.17;11.33;;;13.70;99.90;;;;;;5056741;28;20562;-72
2021/07/14 04:05:16;;;;;;;18.80;11.90;;;13.70;99.90;;;;;;5056955;28;21000;-72
2021/07/14 04:07:45;;;;;;;12.33;9.90;;;13.70;99.90;;;;;;5056454;28;20573;-72
2021/07/14 04:10:14;;;;;;;15.17;9.23;;;13.80;99.90;;;;;;5055980;28;20638;-72
2021/07/14 04:12:40;;;;;;;12.97;10.47;;;13.80;99.90;;;;;;5056010;28;20617;-72
2021/07/14 04:15:08;;;;;;;12.13;8.70;;;13.80;99.90;;;;;;5056571;28;20603;-72
2021/07/14 04:17:34;;;;;;;10.80;9.50;;;13.80;99.90;;;;;;5056385;28;21140;-72
2021/07/14 04:20:01;;;;;;;21.87;10.00;;;13.90;99.90;;;;;;5056428;28;20595;-72
2021/07/14 04:22:28;;;;;;;15.03;9.50;;;13.90;99.90;;;;;;5055737;28;20608;-72
2021/07/14 04:24:54;;;;;;;13.83;10.30;;;13.90;99.90;;;;;;5055935;28;20667;-72
2021/07/14 04:27:21;;;;;;;15.13;9.07;;;14.00;99.90;;;;;;5056413;28;20873;-72
2021/07/14 04:29:47;;;;;;;13.57;10.47;;;13.90;99.90;;;;;;5056201;28;20584;-72
2021/07/14 04:32:13;;;;;;;23.37;11.77;;;13.90;99.90;;;;;;5056308;28;20694;-72
2021/07/14 04:34:40;;;;;;;13.77;10.00;;;14.00;99.90;;;;;;5056010;28;21142;-71
2021/07/14 04:37:06;;;;;;;13.50;11.47;;;14.00;99.90;;;;;;5055867;28;20959;-71
2021/07/14 04:39:32;;;;;;;14.33;10.00;;;14.10;99.90;;;;;;5037697;28;20634;-71
2021/07/14 04:41:59;;;;;;;15.30;10.10;;;14.10;99.90;;;;;;5055971;28;20581;-71
2021/07/14 04:45:07;;;;;;;15.60;9.87;;;14.10;99.90;;;;;;5055866;28;20634;-71
2021/07/14 04:47:15;;;;;;;24.83;10.50;;;14.10;99.90;;;;;;5047761;28;20642;-71
2021/07/14 04:49:41;;;;;;;12.17;10.67;;;14.20;99.90;;;;;;5055822;28;21182;-71
2021/07/14 04:52:09;;;;;;;22.03;11.20;;;14.10;99.90;;;;;;5055145;28;20600;-71
2021/07/14 04:54:36;;;;;;;14.97;10.57;;;14.20;99.90;;;;;;5055988;28;20609;-71
2021/07/14 04:57:02;;;;;;;20.47;11.10;;;14.20;99.90;;;;;;5054635;28;20587;-71
2021/07/14 04:59:29;;;;;;;16.27;10.60;;;14.30;99.90;;;;;;5055329;28;20623;-71
2021/07/14 05:01:55;;;;;;;12.83;10.23;;;14.30;99.90;;;;;;5055196;28;20593;-71
2021/07/14 05:04:21;;;;;;;12.80;9.50;;;14.40;99.90;;;;;;5055382;28;20666;-71
2021/07/14 05:06:47;;;;;;;10.57;9.53;;;14.50;99.90;;;;;;5055410;28;20579;-71
2021/07/14 05:09:14;;;;;;;15.97;11.23;;;14.50;99.90;;;;;;5020997;28;21191;-71
2021/07/14 05:11:40;;;;;;;11.03;9.73;;;14.40;99.90;;;;;;5055316;28;20603;-71
2021/07/14 05:14:06;;;;;;;13.03;10.27;;;14.40;99.90;;;;;;5037830;28;20598;-71
2021/07/14 05:16:33;;;;;;;13.03;10.53;;;14.50;99.90;;;;;;5055337;28;20604;-71
2021/07/14 05:19:02;;;;;;;13.87;11.13;;;14.60;99.90;;;;;;5055067;28;21141;-71
2021/07/14 05:21:29;;;;;;;14.17;10.03;;;14.70;99.90;;;;;;5055468;28;20620;-71
2021/07/14 05:23:55;;;;;;;15.90;10.63;;;14.70;99.90;;;;;;5054746;28;20689;-71
2021/07/14 05:26:22;;;;;;;18.27;11.37;;;14.70;99.90;;;;;;5054891;28;20608;-71
2021/07/14 05:28:48;;;;;;;23.10;12.20;;;14.60;99.90;;;;;;5054958;28;20574;-71
2021/07/14 05:31:15;;;;;;;10.87;9.30;;;14.70;99.90;;;;;;5054763;28;20630;-71
2021/07/14 05:33:42;;;;;;;16.63;10.53;;;14.80;99.90;;;;;;5054800;28;20602;-71
2021/07/14 05:36:11;;;;;;;17.63;8.73;;;14.80;99.90;;;;;;5055071;28;20984;-71
2021/07/14 05:38:39;;;;;;;12.33;10.10;;;14.80;99.90;;;;;;5036497;28;20651;-71
2021/07/14 05:41:06;;;;;;;10.97;9.57;;;14.70;99.90;;;;;;5054978;28;21127;-71
2021/07/14 05:43:32;;;;;;;10.97;9.73;;;14.80;99.90;;;;;;5054185;28;20685;-71
2021/07/14 05:45:58;;;;;;;19.10;11.03;;;14.80;99.90;;;;;;5054497;28;21161;-71
2021/07/14 05:48:25;;;;;;;13.73;10.00;;;15.00;99.90;;;;;;5036756;28;20599;-71
2021/07/14 05:50:52;;;;;;;16.50;9.63;;;15.00;99.90;;;;;;5054401;28;20599;-71
2021/07/14 05:53:19;;;;;;;24.20;10.53;;;14.90;99.90;;;;;;5053835;28;20622;-71
2021/07/14 05:55:45;;;;;;;15.23;9.60;;;14.90;99.90;;;;;;5054399;28;20598;-71
2021/07/14 05:58:12;;;;;;;20.17;11.53;;;14.90;99.90;;;;;;5054103;28;20630;-71
2021/07/14 06:00:38;;;;;;;13.13;9.27;;;14.90;99.90;;;;;;5054232;28;20608;-71
2021/07/14 06:03:06;;;;;;;10.03;8.70;;;15.10;99.90;;;;;;5053193;28;20630;-71
2021/07/14 06:05:34;;;;;;;9.30;8.40;;;15.10;99.90;;;;;;5054304;28;20702;-71
2021/07/14 06:08:00;;;;;;;12.73;8.63;;;15.10;99.90;;;;;;5054012;28;20614;-71
2021/07/14 06:10:27;;;;;;;12.50;8.30;;;15.30;99.90;;;;;;5053498;28;20662;-71
2021/07/14 06:12:58;;;;;;;9.70;7.93;;;15.40;99.90;;;;;;5054221;28;20597;-71
2021/07/14 06:15:25;;;;;;;8.40;7.40;;;15.50;99.90;;;;;;5053188;28;21161;-71
2021/07/14 06:17:51;;;;;;;12.20;7.80;;;15.60;99.90;;;;;;5054418;28;20602;-71
2021/07/14 06:20:18;;;;;;;10.83;7.30;;;15.60;99.90;;;;;;5053891;28;20615;-71
2021/07/14 06:22:45;;;;;;;15.70;8.83;;;15.70;99.90;;;;;;5053784;28;21168;-72
2021/07/14 06:25:12;;;;;;;8.30;6.97;;;15.70;99.90;;;;;;5053834;28;20621;-71
2021/07/14 06:27:42;;;;;;;10.80;7.13;;;15.80;99.90;;;;;;5054069;28;20602;-71
2021/07/14 06:30:10;;;;;;;7.97;7.10;;;15.80;99.90;;;;;;5053880;28;20599;-71
2021/07/14 06:32:37;;;;;;;15.73;7.20;;;15.70;99.90;;;;;;5035509;28;20619;-72
2021/07/14 06:35:06;;;;;;;11.20;7.37;;;15.50;99.90;;;;;;5053458;28;21228;-72
2021/07/14 06:37:32;;;;;;;8.27;7.50;;;15.60;99.90;;;;;;5053745;28;20591;-71
2021/07/14 06:39:59;;;;;;;10.00;6.50;;;15.60;99.90;;;;;;5053615;28;20646;-71
2021/07/14 06:42:26;;;;;;;8.20;7.30;;;15.70;99.90;;;;;;5053545;28;20595;-71
2021/07/14 06:44:52;;;;;;;10.47;7.77;;;15.80;99.90;;;;;;5053500;28;20637;-71
2021/07/14 06:47:18;;;;;;;11.67;7.87;;;15.70;99.90;;;;;;5053370;28;21247;-71
2021/07/14 06:49:45;;;;;;;18.03;7.10;;;15.90;99.90;;;;;;5054025;28;20623;-71
2021/07/14 06:52:11;;;;;;;9.10;6.20;;;15.80;99.90;;;;;;5053049;28;21137;-71
2021/07/14 06:54:38;;;;;;;7.20;6.47;;;15.70;99.90;;;;;;5053361;28;20599;-71
2021/07/14 06:57:07;;;;;;;16.43;6.40;;;15.80;99.90;;;;;;5053203;28;20635;-71
2021/07/14 06:59:34;;;;;;;7.47;6.70;;;15.80;99.90;;;;;;5053895;28;20912;-71
2021/07/14 07:02:03;;;;;;;9.13;6.90;;;15.80;99.90;;;;;;5053402;28;20607;-71
2021/07/14 07:04:31;;;;;;;7.53;6.13;;;15.90;99.90;;;;;;5035395;28;20666;-71
2021/07/14 07:06:58;;;;;;;8.03;6.57;;;15.90;99.90;;;;;;5053403;28;20588;-72
2021/07/14 07:09:24;;;;;;;7.60;6.90;;;15.70;99.90;;;;;;5053337;28;20634;-71
2021/07/14 07:11:51;;;;;;;7.37;6.67;;;15.70;99.90;;;;;;5053378;28;20603;-71
2021/07/14 07:14:18;;;;;;;7.80;7.20;;;15.80;99.90;;;;;;5053552;28;20650;-71
2021/07/14 07:16:45;;;;;;;7.83;5.60;;;15.80;99.90;;;;;;5053111;28;20654;-71
2021/07/14 07:19:11;;;;;;;7.97;7.30;;;15.70;99.90;;;;;;5054932;28;20613;-71
2021/07/14 07:21:37;;;;;;;7.40;6.13;;;15.70;99.90;;;;;;5060010;28;20591;-71
2021/07/14 07:24:04;;;;;;;6.90;6.30;;;15.60;99.90;;;;;;5060234;28;20653;-71
2021/07/14 07:26:31;;;;;;;8.53;6.97;;;15.90;99.90;;;;;;5060417;28;20595;-71
2021/07/14 07:28:59;;;;;;;7.97;7.17;;;15.70;99.90;;;;;;5059920;28;20599;-71
2021/07/14 07:31:26;;;;;;;7.20;6.50;;;15.70;99.90;;;;;;5059728;28;20626;-71
2021/07/14 07:33:52;;;;;;;9.00;6.57;;;15.70;99.90;;;;;;5060291;28;20994;-71
2021/07/14 07:36:18;;;;;;;7.23;6.53;;;15.70;99.90;;;;;;5060091;28;20626;-72
2021/07/14 07:38:45;;;;;;;7.47;6.47;;;15.60;99.90;;;;;;5059616;28;21222;-72
2021/07/14 07:41:12;;;;;;;17.30;6.63;;;15.70;99.90;;;;;;5059848;28;20608;-72
2021/07/14 07:43:39;;;;;;;10.23;6.27;;;15.80;99.90;;;;;;5059776;28;20970;-72
2021/07/14 07:46:05;;;;;;;6.90;5.47;;;15.90;99.90;;;;;;5060006;28;21144;-72
2021/07/14 07:48:32;;;;;;;5.60;5.20;;;15.90;99.90;;;;;;5059383;28;21152;-72
2021/07/14 07:51:00;;;;;;;5.43;4.73;;;16.00;99.90;;;;;;5059866;28;20603;-72
2021/07/14 07:53:26;;;;;;;8.43;4.37;;;16.00;99.90;;;;;;5059590;28;20942;-72
2021/07/14 07:55:53;;;;;;;5.73;5.23;;;16.10;99.90;;;;;;5059605;28;20591;-72
2021/07/14 07:58:19;;;;;;;4.80;4.30;;;16.10;99.90;;;;;;5059584;28;20611;-72
2021/07/14 08:00:47;;;;;;;7.00;5.23;;;16.20;99.90;;;;;;5059899;28;20598;-72
2021/07/14 08:03:13;;;;;;;5.13;4.17;;;16.10;99.90;;;;;;5059838;28;20606;-71
2021/07/14 08:05:41;;;;;;;8.90;4.13;;;16.00;99.90;;;;;;5059458;28;20642;-72
2021/07/14 08:08:07;;;;;;;3.80;3.60;;;16.20;99.90;;;;;;5059394;28;20595;-72
2021/07/14 08:10:34;;;;;;;4.43;4.00;;;16.50;99.90;;;;;;5059651;28;20590;-71
2021/07/14 08:13:02;;;;;;;4.20;3.93;;;16.50;99.90;;;;;;5059504;28;20603;-71
2021/07/14 08:15:28;;;;;;;8.30;4.10;;;16.50;99.90;;;;;;5058802;28;20630;-72
2021/07/14 08:17:55;;;;;;;4.57;3.70;;;16.70;99.90;;;;;;5059467;28;20591;-72
2021/07/14 08:20:22;;;;;;;13.43;4.43;;;16.60;99.90;;;;;;5059091;28;20615;-72
2021/07/14 08:22:48;;;;;;;8.93;4.60;;;16.60;99.90;;;;;;5058814;28;20619;-72
2021/07/14 08:25:15;;;;;;;6.93;4.20;;;16.60;99.90;;;;;;5059376;28;20692;-72
2021/07/14 08:27:41;;;;;;;4.10;3.80;;;16.60;99.90;;;;;;5059362;28;20615;-72
2021/07/14 08:30:09;;;;;;;4.03;3.73;;;16.80;99.90;;;;;;5059253;28;20605;-72
2021/07/14 08:32:36;;;;;;;4.83;4.10;;;17.00;99.90;;;;;;5056346;28;20697;-72
2021/07/14 08:35:04;;;;;;;4.20;3.77;;;17.00;99.90;;;;;;5056198;28;20991;-72
2021/07/14 08:37:31;;;;;;;4.70;4.30;;;16.90;99.90;;;;;;5056083;28;20599;-72
2021/07/14 08:39:58;;;;;;;3.80;3.50;;;16.60;99.90;;;;;;5055649;28;20659;-72
2021/07/14 08:42:25;;;;;;;3.77;3.53;;;16.80;99.90;;;;;;5056124;28;20599;-72
2021/07/14 08:44:53;;;;;;;4.13;3.63;;;16.70;99.90;;;;;;5055772;28;20658;-72
2021/07/14 08:47:20;;;;;;;8.03;3.83;;;16.70;99.90;;;;;;5055658;28;21045;-72
2021/07/14 08:49:49;;;;;;;4.57;4.17;;;16.60;99.90;;;;;;5055914;28;20590;-72
2021/07/14 08:52:17;;;;;;;6.57;4.40;;;16.50;99.90;;;;;;5055900;28;20601;-72
2021/07/14 08:54:44;;;;;;;4.40;4.00;;;16.40;99.90;;;;;;5054522;28;21160;-72
2021/07/14 08:57:13;;;;;;;5.03;4.43;;;16.50;99.90;;;;;;5055484;28;20626;-72
2021/07/14 08:59:40;;;;;;;7.50;4.23;;;16.50;99.90;;;;;;5055794;28;20634;-72
2021/07/14 09:02:08;;;;;;;5.00;3.73;;;16.60;99.90;;;;;;5055775;28;20947;-72
2021/07/14 09:04:36;;;;;;;4.83;3.73;;;16.50;99.90;;;;;;5054824;28;20651;-72
2021/07/14 09:07:04;;;;;;;5.13;4.60;;;16.50;99.90;;;;;;5055948;28;20668;-72
2021/07/14 09:09:31;;;;;;;7.70;3.77;;;16.50;99.90;;;;;;5055086;28;20611;-72
2021/07/14 09:12:00;;;;;;;4.97;4.67;;;16.40;99.90;;;;;;5037888;28;20642;-72
2021/07/14 09:14:29;;;;;;;6.80;4.40;;;16.50;99.90;;;;;;5056092;28;20971;-72
2021/07/14 09:16:56;;;;;;;4.60;4.30;;;16.60;99.90;;;;;;5056632;28;20985;-72
2021/07/14 09:19:25;;;;;;;6.40;3.70;;;16.50;99.90;;;;;;5055840;28;20612;-73
2021/07/14 09:21:52;;;;;;;6.40;4.10;;;16.50;99.90;;;;;;5054742;28;20614;-73
2021/07/14 09:24:33;;;;;;;3.60;3.40;;;16.50;99.90;;;;;;5056070;28;21193;-72
2021/07/14 09:27:14;;;;;;;6.97;5.03;;;16.50;99.90;;;;;;5055273;28;21112;-73
2021/07/14 09:29:41;;;;;;;5.53;3.60;;;16.60;99.90;;;;;;5055198;28;20955;-72
2021/07/14 09:32:09;;;;;;;3.93;3.63;;;16.50;99.90;;;;;;5055207;28;20979;-73
2021/07/14 09:34:36;;;;;;;13.40;4.43;;;16.60;99.90;;;;;;5054447;28;20627;-72
2021/07/14 09:37:04;;;;;;;3.83;3.53;;;16.50;99.90;;;;;;5055137;28;20616;-72
2021/07/14 09:39:35;;;;;;;5.87;4.00;;;16.50;99.90;;;;;;5053889;28;20758;-72
2021/07/14 09:42:12;;;;;;;4.53;3.80;;;16.60;99.90;;;;;;5054012;28;21055;-72
2021/07/14 09:44:50;;;;;;;3.57;3.27;;;16.60;99.90;;;;;;5036253;28;21085;-72
2021/07/14 09:47:22;;;;;;;4.83;4.23;;;16.60;99.90;;;;;;5054212;28;20615;-72
2021/07/14 09:49:49;;;;;;;5.63;3.50;;;16.60;99.90;;;;;;5054171;28;21164;-73
2021/07/14 09:52:19;;;;;;;5.53;3.37;;;16.60;99.90;;;;;;5054417;28;20650;-72
2021/07/14 09:54:46;;;;;;;4.67;4.30;;;16.60;99.90;;;;;;5036409;28;21180;-72
2021/07/14 09:57:18;;;;;;;9.63;4.37;;;16.60;99.90;;;;;;5053873;28;20611;-72
2021/07/14 09:59:45;;;;;;;5.83;4.70;;;16.70;99.90;;;;;;5035841;28;20956;-72
2021/07/14 10:02:14;;;;;;;5.30;3.70;;;16.90;99.90;;;;;;5054105;28;20964;-72
2021/07/14 10:04:42;;;;;;;4.97;4.10;;;16.90;99.90;;;;;;5054310;28;20667;-71
2021/07/14 10:07:08;;;;;;;4.10;3.67;;;16.90;99.90;;;;;;5053864;28;20627;-72
2021/07/14 10:09:35;;;;;;;4.23;4.00;;;17.00;99.90;;;;;;5053992;28;20661;-73
2021/07/14 10:12:27;;;;;;;4.73;3.60;;;17.00;99.90;;;;;;5054263;28;20592;-73
2021/07/14 10:14:55;;;;;;;4.23;3.77;;;17.10;99.90;;;;;;5054414;28;20651;-73
2021/07/14 10:17:39;;;;;;;4.13;3.83;;;17.00;99.90;;;;;;5054165;28;20595;-73
2021/07/14 10:20:32;;;;;;;10.33;3.87;;;17.00;99.90;;;;;;5053401;28;20950;-73
2021/07/14 10:23:04;;;;;;;4.93;4.20;;;17.00;99.90;;;;;;5035592;28;20622;-73
2021/07/14 10:25:32;;;;;;;6.10;3.60;;;17.00;99.90;;;;;;5053588;28;20681;-72
2021/07/14 10:28:00;;;;;;;5.90;3.70;;;17.00;99.90;;;;;;5053515;28;20621;-72
2021/07/14 10:30:27;;;;;;;4.53;3.70;;;17.00;99.90;;;;;;5054143;28;20698;-72
2021/07/14 10:32:56;;;;;;;5.83;3.80;;;17.20;99.90;;;;;;5054044;28;21140;-72
2021/07/14 10:35:25;;;;;;;4.23;3.40;;;17.20;99.90;;;;;;5053924;28;21219;-72
2021/07/14 10:37:54;;;;;;;3.60;3.40;;;17.30;99.90;;;;;;5036083;28;20627;-72
2021/07/14 10:40:23;;;;;;;7.63;4.13;;;17.40;99.90;;;;;;5053160;28;20707;-72
2021/07/14 10:42:51;;;;;;;4.53;3.37;;;17.50;99.90;;;;;;5048195;28;20634;-72
2021/07/14 10:45:18;;;;;;;4.03;3.70;;;17.40;99.90;;;;;;5035222;28;20659;-72
2021/07/14 10:47:47;;;;;;;3.87;3.50;;;17.50;99.90;;;;;;5035549;28;20650;-73
2021/07/14 10:50:15;;;;;;;4.73;3.90;;;17.40;99.90;;;;;;5053352;28;20654;-73
2021/07/14 10:52:42;;;;;;;5.90;4.40;;;17.40;99.90;;;;;;5053493;28;20698;-71
2021/07/14 10:55:11;;;;;;;5.23;3.70;;;17.60;99.90;;;;;;5052126;28;20619;-71
2021/07/14 10:57:38;;;;;;;4.40;4.10;;;17.40;99.90;;;;;;5053364;28;20629;-71
2021/07/14 11:00:09;;;;;;;4.03;3.60;;;17.50;99.90;;;;;;5051884;28;20642;-70
2021/07/14 11:02:50;;;;;;;4.50;4.10;;;17.40;99.90;;;;;;5053096;28;20708;-72
2021/07/14 11:05:50;;;;;;;5.37;4.30;;;17.50;99.90;;;;;;5053080;28;20607;-70
2021/07/14 11:08:43;;;;;;;12.07;4.20;;;17.50;99.90;;;;;;5052814;28;20653;-73
2021/07/14 11:11:20;;;;;;;5.57;3.27;;;17.60;99.90;;;;;;5022655;28;20627;-73
2021/07/14 11:13:50;;;;;;;3.50;3.30;;;17.50;99.90;;;;;;5053030;28;21214;-73
2021/07/14 11:16:29;;;;;;;3.50;3.20;;;17.50;99.90;;;;;;5035677;28;20997;-73
2021/07/14 11:19:08;;;;;;;3.63;3.33;;;17.40;99.90;;;;;;5035134;28;20619;-72
2021/07/14 11:22:03;;;;;;;3.63;3.13;;;17.30;99.90;;;;;;5052791;28;20646;-72
2021/07/14 11:24:46;;;;;;;3.13;2.93;;;17.30;99.90;;;;;;5040202;28;20708;-71
2021/07/14 11:27:27;;;;;;;4.07;3.83;;;17.20;99.90;;;;;;5052974;28;20733;-73
2021/07/14 11:30:16;;;;;;;3.30;3.10;;;17.50;99.90;;;;;;5052845;28;20584;-71
2021/07/14 11:32:42;;;;;;;6.03;3.80;;;17.40;99.90;;;;;;5052901;28;20973;-72
2021/07/14 11:35:11;;;;;;;4.00;3.53;;;17.50;99.90;;;;;;5052762;28;21258;-72
2021/07/14 11:37:44;;;;;;;3.97;3.70;;;17.40;99.90;;;;;;5035182;28;20729;-70
2021/07/14 11:40:25;;;;;;;5.47;3.43;;;17.50;99.90;;;;;;5053147;28;21012;-73
2021/07/14 11:42:59;;;;;;;4.40;3.13;;;17.50;99.90;;;;;;5035579;28;20663;-72
2021/07/14 11:45:37;;;;;;;8.50;4.20;;;17.60;99.90;;;;;;5051097;28;20660;-71
2021/07/14 11:48:07;;;;;;;13.70;3.40;;;17.80;99.90;;;;;;5042341;28;20630;-71
2021/07/14 11:50:54;;;;;;;4.10;3.30;;;17.70;99.90;;;;;;5052587;28;21004;-72
2021/07/14 11:56:11;;;;;;;7.70;3.03;;;17.70;99.90;;;;;;5053237;28;20603;-73
2021/07/14 11:58:58;;;;;;;4.50;3.07;;;17.70;99.90;;;;;;5053248;28;21125;-73
2021/07/14 12:01:25;;;;;;;3.50;3.20;;;17.70;99.90;;;;;;5046180;28;20623;-73
2021/07/14 12:04:24;;;;;;;3.13;2.93;;;17.70;99.90;;;;;;5045334;28;20654;-73
2021/07/14 12:06:53;;;;;;;3.63;2.77;;;17.60;99.90;;;;;;5043638;28;20635;-73
2021/07/14 12:09:20;;;;;;;3.57;2.97;;;17.60;99.90;;;;;;5073794;28;20617;-72
2021/07/14 12:11:51;;;;;;;2.97;2.67;;;17.50;99.90;;;;;;5082399;28;20607;-72
2021/07/14 12:14:20;;;;;;;3.27;2.77;;;17.50;99.90;;;;;;5039069;28;20591;-72
2021/07/14 12:17:00;;;;;;;3.43;3.13;;;17.70;99.90;;;;;;5055970;28;21156;-72
2021/07/14 12:19:29;;;;;;;5.57;2.80;;;17.70;99.90;;;;;;5055193;28;20987;-72
2021/07/14 12:22:02;;;;;;;4.10;3.70;;;17.70;99.90;;;;;;5055756;28;20964;-71
2021/07/14 12:24:29;;;;;;;3.17;2.80;;;17.70;99.90;;;;;;5055903;28;20705;-71
2021/07/14 12:27:06;;;;;;;4.03;3.53;;;17.80;99.90;;;;;;5038384;28;20610;-73
2021/07/14 12:29:33;;;;;;;3.53;3.33;;;17.80;99.90;;;;;;5056597;28;20559;-71
2021/07/14 12:32:00;;;;;;;3.70;3.40;;;17.80;99.90;;;;;;5055963;28;20718;-72
2021/07/14 12:34:28;;;;;;;2.97;2.73;;;17.80;99.90;;;;;;5056491;28;20693;-71
2021/07/14 12:36:56;;;;;;;6.37;3.00;;;17.80;99.90;;;;;;5056111;28;20599;-71
2021/07/14 12:39:34;;;;;;;2.80;2.60;;;17.80;99.90;;;;;;5055516;28;20693;-71
2021/07/14 12:42:03;;;;;;;3.77;2.93;;;17.70;99.90;;;;;;5056013;28;21176;-71
2021/07/14 12:44:30;;;;;;;3.17;2.87;;;17.80;99.90;;;;;;5055924;28;20961;-72
2021/07/14 12:47:13;;;;;;;2.80;2.60;;;17.70;99.90;;;;;;5055985;28;20599;-71
2021/07/14 12:49:40;;;;;;;2.67;2.47;;;17.70;99.90;;;;;;5056076;28;20627;-72
2021/07/14 12:52:16;;;;;;;2.33;2.23;;;17.70;99.90;;;;;;5055891;28;21172;-73
2021/07/14 12:54:47;;;;;;;2.23;2.13;;;17.90;99.90;;;;;;5055989;28;21121;-72
2021/07/14 12:57:25;;;;;;;2.77;2.60;;;17.90;99.90;;;;;;5055286;28;20619;-71
2021/07/14 12:59:57;;;;;;;2.53;2.33;;;18.10;99.90;;;;;;5055680;28;20730;-71
2021/07/14 13:02:36;;;;;;;3.47;2.37;;;17.80;99.90;;;;;;5055790;28;21065;-71